Time;durP1;ratioP1;P1;durP2;ratioP2;P2;SDS_P1;SDS_P2;PMS_P1;PMS_P2;Temp;Humidity;BMP_temperature;BMP_pressure;BME280_temperature;BME280_humidity;BME280_pressure;Samples;Min_cycle;Max_cycle;Signal;HPM_P1;HPM_P2
2020/12/07 00:00:43;;;;;;;55.47;16.52;;;6.80;99.90;;;;;;5049559;28;20396;-84
2020/12/07 00:03:09;;;;;;;55.55;14.63;;;6.70;99.90;;;;;;5050216;28;20029;-84
2020/12/07 00:05:36;;;;;;;57.35;15.05;;;6.60;99.90;;;;;;5050322;28;20101;-84
2020/12/07 00:08:02;;;;;;;37.30;14.80;;;6.60;99.90;;;;;;5050738;28;20017;-84
2020/12/07 00:10:28;;;;;;;41.53;15.00;;;6.60;99.90;;;;;;5050652;28;20475;-84
2020/12/07 00:12:54;;;;;;;39.83;14.35;;;6.60;99.90;;;;;;5049117;28;20140;-84
2020/12/07 00:15:20;;;;;;;34.10;14.13;;;6.60;99.90;;;;;;5049217;28;20129;-83
2020/12/07 00:17:45;;;;;;;39.35;13.05;;;6.60;99.90;;;;;;5050517;28;20081;-84
2020/12/07 00:20:11;;;;;;;21.35;13.13;;;6.50;99.90;;;;;;5050602;28;20021;-84
2020/12/07 00:22:39;;;;;;;22.63;11.45;;;6.50;99.90;;;;;;5049142;28;20372;-83
2020/12/07 00:25:08;;;;;;;15.35;10.27;;;6.40;99.90;;;;;;5050222;28;20081;-84
2020/12/07 00:27:35;;;;;;;12.90;9.77;;;6.40;99.90;;;;;;5050358;28;20053;-84
2020/12/07 00:30:02;;;;;;;13.82;10.32;;;6.50;99.90;;;;;;5050340;28;20519;-84
2020/12/07 00:32:28;;;;;;;28.92;12.98;;;6.50;99.90;;;;;;5049656;28;20077;-84
2020/12/07 00:34:54;;;;;;;33.08;14.55;;;6.30;99.90;;;;;;5050007;28;20033;-84
2020/12/07 00:37:21;;;;;;;97.95;17.10;;;6.30;99.90;;;;;;5049831;28;20036;-84
2020/12/07 00:39:47;;;;;;;111.88;21.15;;;6.20;99.90;;;;;;5050320;28;20487;-84
2020/12/07 00:42:13;;;;;;;35.17;17.20;;;6.30;99.90;;;;;;5049943;28;20120;-84
2020/12/07 00:44:40;;;;;;;40.55;15.25;;;6.30;99.90;;;;;;5049635;28;20036;-83
2020/12/07 00:47:07;;;;;;;38.63;16.35;;;6.30;99.90;;;;;;5049972;28;20044;-84
2020/12/07 00:49:34;;;;;;;30.95;15.65;;;6.20;99.90;;;;;;5048650;28;20021;-83
2020/12/07 00:52:00;;;;;;;26.00;14.73;;;6.00;99.90;;;;;;5048726;28;20025;-83
2020/12/07 00:54:26;;;;;;;19.98;12.50;;;5.90;99.90;;;;;;5048671;28;20108;-83
2020/12/07 00:56:56;;;;;;;16.88;12.75;;;5.90;99.90;;;;;;5050111;28;20029;-84
2020/12/07 00:59:22;;;;;;;15.75;9.63;;;6.00;99.90;;;;;;5049041;28;20037;-83
2020/12/07 01:01:49;;;;;;;10.05;7.40;;;5.90;99.90;;;;;;5048690;28;20036;-83
2020/12/07 01:04:14;;;;;;;6.25;5.43;;;6.00;99.90;;;;;;5048781;28;20025;-83
2020/12/07 01:06:44;;;;;;;1.73;1.63;;;6.10;99.90;;;;;;5059748;27;20386;-84
2020/12/07 01:09:11;;;;;;;1.27;1.17;;;6.10;99.90;;;;;;5049874;28;20025;-84
2020/12/07 01:11:36;;;;;;;0.90;0.90;;;6.10;99.90;;;;;;5049652;28;20057;-84
2020/12/07 01:14:02;;;;;;;1.77;1.35;;;6.10;99.90;;;;;;5049865;28;20140;-84
2020/12/07 01:16:28;;;;;;;1.15;0.80;;;6.10;99.90;;;;;;5049314;28;20037;-84
2020/12/07 01:18:54;;;;;;;1.08;0.98;;;6.20;99.90;;;;;;5049793;28;20025;-84
2020/12/07 01:21:20;;;;;;;3.00;2.45;;;6.20;99.90;;;;;;5049648;28;20029;-84
2020/12/07 01:23:45;;;;;;;7.63;6.57;;;6.30;99.90;;;;;;5048595;28;20025;-84
2020/12/07 01:26:12;;;;;;;22.58;13.00;;;6.20;99.90;;;;;;5048382;28;20025;-84
2020/12/07 01:28:38;;;;;;;34.53;15.00;;;6.00;99.90;;;;;;5048390;28;20028;-83
2020/12/07 01:31:03;;;;;;;39.08;16.85;;;6.00;99.90;;;;;;5049558;28;20021;-84
2020/12/07 01:33:29;;;;;;;28.45;16.13;;;6.00;99.90;;;;;;5049143;28;20018;-85
2020/12/07 01:35:56;;;;;;;24.13;14.93;;;6.10;99.90;;;;;;5049667;28;20025;-84
2020/12/07 01:38:22;;;;;;;24.80;15.45;;;6.10;99.90;;;;;;5048167;28;20033;-84
2020/12/07 01:40:48;;;;;;;27.65;17.35;;;6.20;99.90;;;;;;5049514;28;20499;-84
2020/12/07 01:43:13;;;;;;;25.35;15.68;;;6.30;99.90;;;;;;5049209;28;20036;-84
2020/12/07 01:45:39;;;;;;;25.08;14.90;;;6.30;99.90;;;;;;5052905;28;20103;-84
2020/12/07 01:48:05;;;;;;;21.92;13.82;;;6.30;99.90;;;;;;5052922;28;20063;-84
2020/12/07 01:50:31;;;;;;;21.60;14.32;;;6.20;99.90;;;;;;5052944;28;20457;-84
2020/12/07 01:52:59;;;;;;;20.08;13.32;;;6.30;99.90;;;;;;5051727;28;20036;-84
2020/12/07 01:55:25;;;;;;;21.00;12.20;;;6.30;99.90;;;;;;5051426;28;20082;-84
2020/12/07 01:57:51;;;;;;;17.50;12.10;;;6.30;99.90;;;;;;5051765;28;20033;-84
2020/12/07 02:00:17;;;;;;;436.77;242.88;;;6.40;99.90;;;;;;5051604;28;20468;-83
2020/12/07 02:02:42;;;;;;;198.80;113.88;;;6.50;99.90;;;;;;5052096;28;20033;-83
2020/12/07 02:05:08;;;;;;;90.53;53.45;;;6.60;99.90;;;;;;5052646;28;20025;-84
2020/12/07 02:07:34;;;;;;;73.82;42.33;;;6.70;99.90;;;;;;5051433;28;20527;-83
2020/12/07 02:09:59;;;;;;;58.00;39.25;;;6.80;99.90;;;;;;5052558;28;20077;-85
2020/12/07 02:12:25;;;;;;;13.10;10.55;;;6.70;99.90;;;;;;5050994;28;20513;-83
2020/12/07 02:14:51;;;;;;;9.02;8.10;;;6.60;99.90;;;;;;5052657;28;20629;-84
2020/12/07 02:17:16;;;;;;;5.35;4.82;;;6.60;99.90;;;;;;5052240;28;20029;-84
2020/12/07 02:19:42;;;;;;;5.88;5.10;;;6.60;99.90;;;;;;5051024;28;20555;-84
2020/12/07 02:22:11;;;;;;;7.30;6.13;;;6.60;99.90;;;;;;5051898;28;20166;-84
2020/12/07 02:24:36;;;;;;;5.57;4.90;;;6.50;99.90;;;;;;5051313;28;20082;-84
2020/12/07 02:27:02;;;;;;;7.90;6.15;;;6.50;99.90;;;;;;5051576;28;20073;-84
2020/12/07 02:29:31;;;;;;;9.07;5.90;;;6.50;99.90;;;;;;5051196;28;20021;-84
2020/12/07 02:32:17;;;;;;;5.85;5.13;;;6.40;99.90;;;;;;5050151;28;20039;-84
2020/12/07 02:34:43;;;;;;;5.80;4.72;;;6.40;99.90;;;;;;5051279;28;20041;-84
2020/12/07 02:37:09;;;;;;;5.45;4.57;;;6.40;99.90;;;;;;5051636;28;20028;-84
2020/12/07 02:39:35;;;;;;;7.70;5.03;;;6.40;99.90;;;;;;5051241;28;20037;-84
2020/12/07 02:42:03;;;;;;;6.30;4.85;;;6.30;99.90;;;;;;5051290;28;20570;-84
2020/12/07 02:44:29;;;;;;;3.72;3.42;;;6.30;99.90;;;;;;5051304;28;20070;-83
2020/12/07 02:46:54;;;;;;;4.43;3.70;;;6.20;99.90;;;;;;5050629;28;20025;-83
2020/12/07 02:49:20;;;;;;;2.38;2.17;;;6.20;99.90;;;;;;5051947;28;20524;-84
2020/12/07 02:51:46;;;;;;;2.53;2.13;;;6.20;99.90;;;;;;5051701;28;20032;-84
2020/12/07 02:54:12;;;;;;;3.08;2.58;;;6.20;99.90;;;;;;5051527;28;20021;-83
2020/12/07 02:56:37;;;;;;;1.88;1.73;;;6.20;99.90;;;;;;5051736;28;20054;-84
2020/12/07 02:59:03;;;;;;;2.22;2.03;;;6.20;99.90;;;;;;5050297;28;20033;-84
2020/12/07 03:01:32;;;;;;;1.60;1.50;;;6.20;99.90;;;;;;5050444;28;20029;-83
2020/12/07 03:03:57;;;;;;;1.65;1.35;;;6.10;99.90;;;;;;5051752;28;20045;-83
2020/12/07 03:06:23;;;;;;;1.80;1.40;;;6.20;99.90;;;;;;5039772;28;20112;-76
2020/12/07 03:08:49;;;;;;;3.10;1.42;;;6.10;99.90;;;;;;5029025;28;20109;-76
2020/12/07 03:11:14;;;;;;;1.40;1.30;;;6.20;99.90;;;;;;5029183;28;20042;-76
2020/12/07 03:13:40;;;;;;;0.95;0.95;;;6.20;99.90;;;;;;5029036;28;20026;-76
2020/12/07 03:16:05;;;;;;;2.95;1.10;;;6.20;99.90;;;;;;5033839;28;20045;-76
2020/12/07 03:18:31;;;;;;;1.33;1.23;;;6.30;99.90;;;;;;5049958;28;20278;-76
2020/12/07 03:20:57;;;;;;;3.35;1.10;;;6.30;99.90;;;;;;5049974;28;20021;-76
2020/12/07 03:23:22;;;;;;;2.55;1.15;;;6.40;99.90;;;;;;5048568;28;20472;-76
2020/12/07 03:25:48;;;;;;;0.93;0.93;;;6.40;99.90;;;;;;5049858;28;20056;-84
2020/12/07 03:28:13;;;;;;;1.50;1.40;;;6.40;99.90;;;;;;5049808;28;20022;-84
2020/12/07 03:30:39;;;;;;;1.10;1.00;;;6.40;99.90;;;;;;5049568;28;20348;-84
2020/12/07 03:33:05;;;;;;;1.40;1.00;;;6.40;99.90;;;;;;5050212;28;20459;-84
2020/12/07 03:35:30;;;;;;;1.38;1.27;;;6.40;99.90;;;;;;5049719;28;20064;-84
2020/12/07 03:37:56;;;;;;;1.50;1.35;;;6.40;99.90;;;;;;5048544;28;20025;-76
2020/12/07 03:40:22;;;;;;;1.00;1.00;;;6.50;99.90;;;;;;5048519;28;20032;-76
2020/12/07 03:42:48;;;;;;;1.58;1.42;;;6.60;99.90;;;;;;5049261;28;20037;-76
2020/12/07 03:45:13;;;;;;;1.08;1.02;;;6.60;99.90;;;;;;5049598;28;20384;-76
2020/12/07 03:47:39;;;;;;;0.93;0.93;;;6.60;99.90;;;;;;5049709;28;20032;-76
2020/12/07 03:50:05;;;;;;;3.22;1.38;;;6.60;99.90;;;;;;5048052;28;20029;-76
2020/12/07 03:52:30;;;;;;;1.45;1.35;;;6.70;99.90;;;;;;5049571;28;20108;-83
2020/12/07 03:54:56;;;;;;;1.50;1.38;;;6.70;99.90;;;;;;5048804;27;20033;-84
2020/12/07 03:57:22;;;;;;;1.55;1.45;;;6.70;99.90;;;;;;5049654;28;20018;-84
2020/12/07 03:59:47;;;;;;;2.50;1.48;;;6.70;99.90;;;;;;5048430;28;20045;-84
2020/12/07 04:02:13;;;;;;;1.92;1.83;;;6.70;99.90;;;;;;5049223;28;20096;-84
2020/12/07 04:04:56;;;;;;;2.35;2.17;;;6.70;99.90;;;;;;5049222;28;20025;-83
2020/12/07 04:07:22;;;;;;;1.92;1.83;;;6.70;99.90;;;;;;5048738;28;20021;-84
2020/12/07 04:09:48;;;;;;;2.00;1.90;;;6.70;99.90;;;;;;5049201;28;20291;-85
2020/12/07 04:12:13;;;;;;;3.25;2.58;;;6.70;99.90;;;;;;5047875;28;20523;-83
2020/12/07 04:14:39;;;;;;;3.65;2.50;;;6.70;99.90;;;;;;5049110;28;20033;-84
2020/12/07 04:17:04;;;;;;;2.67;2.40;;;6.70;99.90;;;;;;5049174;28;20037;-84
2020/12/07 04:19:30;;;;;;;3.33;2.50;;;6.70;99.90;;;;;;5049463;28;20051;-84
2020/12/07 04:21:56;;;;;;;3.13;2.90;;;6.60;99.90;;;;;;5048749;28;20040;-76
2020/12/07 04:24:21;;;;;;;3.13;2.80;;;6.60;99.90;;;;;;5047748;28;20121;-76
2020/12/07 04:26:48;;;;;;;3.00;2.80;;;6.70;99.90;;;;;;5048855;28;20108;-76
2020/12/07 04:29:14;;;;;;;2.40;2.20;;;6.70;99.90;;;;;;5047675;28;20081;-76
2020/12/07 04:31:40;;;;;;;3.53;1.75;;;6.80;99.90;;;;;;5048800;28;20029;-76
2020/12/07 04:34:05;;;;;;;1.58;1.48;;;6.80;99.90;;;;;;5048932;28;20033;-76
2020/12/07 04:36:31;;;;;;;1.20;1.10;;;6.80;99.90;;;;;;5047163;28;20035;-77
2020/12/07 04:38:57;;;;;;;1.20;1.15;;;6.90;99.90;;;;;;5048941;28;20023;-76
2020/12/07 04:41:22;;;;;;;1.48;1.15;;;6.90;99.90;;;;;;5048558;28;20400;-76
2020/12/07 04:43:49;;;;;;;1.17;1.10;;;6.90;99.90;;;;;;5049134;28;20101;-76
2020/12/07 04:46:16;;;;;;;1.05;1.02;;;7.00;99.90;;;;;;5048400;28;20540;-77
2020/12/07 04:48:44;;;;;;;3.38;1.45;;;7.00;99.90;;;;;;5047803;28;20489;-76
2020/12/07 04:51:10;;;;;;;1.52;1.42;;;7.00;99.90;;;;;;5047255;28;20476;-84
2020/12/07 04:53:38;;;;;;;1.75;1.45;;;6.90;99.90;;;;;;5048813;28;20024;-84
2020/12/07 04:56:04;;;;;;;1.90;1.80;;;7.00;99.90;;;;;;5048983;28;20100;-84
2020/12/07 04:58:30;;;;;;;2.17;1.98;;;7.00;99.90;;;;;;5063425;27;20453;-84
2020/12/07 05:00:55;;;;;;;1.30;1.23;;;7.00;99.90;;;;;;5048186;28;20109;-76
2020/12/07 05:03:21;;;;;;;1.95;1.30;;;7.00;99.90;;;;;;5048431;28;20029;-76
2020/12/07 05:05:51;;;;;;;4.50;1.90;;;7.00;99.90;;;;;;5048401;28;20032;-76
2020/12/07 05:08:17;;;;;;;1.60;1.50;;;7.00;99.90;;;;;;5046810;28;20112;-77
2020/12/07 05:10:44;;;;;;;1.65;1.52;;;6.90;99.90;;;;;;5048200;28;20117;-76
2020/12/07 05:15:40;;;;;;;4.72;2.13;;;6.90;99.90;;;;;;5048310;28;20106;-84
2020/12/07 05:18:08;;;;;;;3.58;2.28;;;6.80;99.90;;;;;;5049529;28;20025;-84
2020/12/07 05:20:34;;;;;;;1.50;1.40;;;6.80;99.90;;;;;;5051729;28;20047;-76
2020/12/07 05:23:01;;;;;;;2.10;1.88;;;6.90;99.90;;;;;;5051631;28;20037;-76
2020/12/07 05:25:27;;;;;;;2.05;1.73;;;6.90;99.90;;;;;;5051769;28;20029;-77
2020/12/07 05:27:53;;;;;;;1.70;1.60;;;6.90;99.90;;;;;;5050178;28;20040;-76
2020/12/07 05:30:39;;;;;;;1.52;1.42;;;6.90;99.90;;;;;;5050567;28;20025;-76
2020/12/07 05:33:05;;;;;;;1.50;1.40;;;6.90;99.90;;;;;;5030036;28;20032;-76
2020/12/07 05:35:37;;;;;;;4.45;1.30;;;7.00;99.90;;;;;;5051493;28;20036;-76
2020/12/07 05:38:04;;;;;;;1.45;1.35;;;6.90;99.90;;;;;;5050357;28;20455;-77
2020/12/07 05:40:30;;;;;;;1.45;1.35;;;6.90;99.90;;;;;;5050289;28;20025;-77
2020/12/07 05:42:58;;;;;;;1.80;1.42;;;7.00;99.90;;;;;;5051125;28;20497;-76
2020/12/07 05:45:24;;;;;;;1.20;1.20;;;7.00;99.90;;;;;;5051794;28;20097;-84
2020/12/07 05:47:52;;;;;;;1.40;1.23;;;7.00;99.90;;;;;;5051350;28;20021;-84
2020/12/07 05:50:19;;;;;;;2.28;1.10;;;7.10;99.90;;;;;;5051490;28;20040;-84
2020/12/07 05:52:53;;;;;;;1.10;1.05;;;7.10;99.90;;;;;;5051652;28;20082;-84
2020/12/07 05:55:20;;;;;;;2.08;1.10;;;7.10;99.90;;;;;;5050574;28;20437;-84
2020/12/07 05:57:53;;;;;;;1.20;1.10;;;7.20;99.90;;;;;;5051571;28;20025;-84
2020/12/07 06:00:21;;;;;;;1.35;0.82;;;7.20;99.90;;;;;;5051389;27;20467;-84
2020/12/07 06:02:53;;;;;;;3.35;1.30;;;7.20;99.90;;;;;;5050252;28;20060;-84
2020/12/07 06:05:23;;;;;;;2.37;1.67;;;7.20;99.90;;;;;;5049879;28;20531;-83
2020/12/07 06:08:03;;;;;;;1.23;1.13;;;7.20;99.90;;;;;;5051267;28;20024;-84
2020/12/07 06:10:34;;;;;;;1.50;1.40;;;7.20;99.90;;;;;;5051130;28;20071;-83
2020/12/07 06:13:04;;;;;;;1.60;1.50;;;7.30;99.90;;;;;;5049950;28;20060;-76
2020/12/07 06:15:31;;;;;;;1.92;1.50;;;7.20;99.90;;;;;;5050090;28;20028;-76
2020/12/07 06:17:56;;;;;;;1.73;1.50;;;7.30;99.90;;;;;;5051247;28;20098;-76
2020/12/07 06:20:27;;;;;;;2.72;2.53;;;7.30;99.90;;;;;;5049954;28;20086;-76
2020/12/07 06:22:55;;;;;;;1.63;1.52;;;7.30;99.90;;;;;;5050639;28;20025;-84
2020/12/07 06:25:24;;;;;;;3.05;2.40;;;7.40;99.90;;;;;;5051023;28;20021;-76
2020/12/07 06:27:50;;;;;;;8.32;3.72;;;7.40;99.90;;;;;;5049644;28;20021;-76
2020/12/07 06:30:18;;;;;;;9.73;4.10;;;7.40;99.90;;;;;;5048837;28;20021;-76
2020/12/07 06:32:52;;;;;;;2.22;2.03;;;7.40;99.90;;;;;;5050424;28;20017;-83
2020/12/07 06:35:21;;;;;;;3.67;2.40;;;7.30;99.90;;;;;;5050943;28;20056;-83
2020/12/07 06:37:49;;;;;;;2.60;1.98;;;7.40;99.90;;;;;;5049312;28;20025;-84
2020/12/07 06:40:18;;;;;;;6.82;2.00;;;7.40;99.90;;;;;;5050759;28;20548;-84
2020/12/07 06:42:45;;;;;;;2.83;1.90;;;7.40;99.90;;;;;;5050480;28;20032;-76
2020/12/07 06:45:24;;;;;;;2.10;1.52;;;7.40;99.90;;;;;;5049473;28;20028;-76
2020/12/07 06:47:51;;;;;;;3.42;1.92;;;7.50;99.90;;;;;;5049618;28;20029;-76
2020/12/07 06:50:20;;;;;;;1.83;1.73;;;7.50;99.90;;;;;;5050848;28;20475;-76
2020/12/07 06:52:46;;;;;;;1.70;1.60;;;7.40;99.90;;;;;;5049358;28;20123;-76
2020/12/07 06:55:15;;;;;;;1.70;1.60;;;7.50;99.90;;;;;;5049024;28;20476;-77
2020/12/07 06:57:51;;;;;;;2.67;2.00;;;7.40;99.90;;;;;;5050490;28;20032;-76
2020/12/07 07:00:21;;;;;;;4.28;1.50;;;7.30;99.90;;;;;;5045072;28;20029;-76
2020/12/07 07:02:51;;;;;;;3.05;1.50;;;7.30;99.90;;;;;;5050030;28;20029;-76
2020/12/07 07:05:19;;;;;;;2.80;2.28;;;7.30;99.90;;;;;;5048640;28;20027;-76
2020/12/07 07:07:45;;;;;;;2.90;2.60;;;7.20;99.90;;;;;;5050449;28;20017;-76
2020/12/07 07:10:17;;;;;;;3.78;2.60;;;7.30;99.90;;;;;;5051476;28;20033;-76
2020/12/07 07:12:44;;;;;;;2.83;2.50;;;7.40;99.90;;;;;;5048678;28;20057;-76
2020/12/07 07:15:11;;;;;;;2.15;1.98;;;7.40;99.90;;;;;;5049678;28;20441;-76
2020/12/07 07:17:42;;;;;;;2.17;1.95;;;7.40;99.90;;;;;;5050161;28;20040;-76
2020/12/07 07:20:10;;;;;;;2.50;2.30;;;7.40;99.90;;;;;;5049845;28;20079;-76
2020/12/07 07:22:40;;;;;;;2.40;1.90;;;7.40;99.90;;;;;;5049939;28;20032;-76
2020/12/07 07:28:02;;;;;;;3.47;2.25;;;7.40;99.90;;;;;;5050087;28;20112;-76
2020/12/07 07:30:28;;;;;;;3.05;2.45;;;7.40;99.90;;;;;;5050170;28;20017;-76
2020/12/07 07:32:55;;;;;;;3.17;2.65;;;7.50;99.90;;;;;;5050357;28;20088;-76
2020/12/07 07:35:22;;;;;;;4.47;2.83;;;7.50;99.90;;;;;;5049490;28;20387;-76
2020/12/07 07:37:48;;;;;;;3.70;2.80;;;7.60;99.90;;;;;;5051082;28;20707;-83
2020/12/07 07:40:20;;;;;;;4.53;2.88;;;7.60;99.90;;;;;;5051054;28;20052;-83
2020/12/07 07:42:51;;;;;;;6.57;5.10;;;7.60;99.90;;;;;;5048457;28;20372;-83
2020/12/07 07:45:19;;;;;;;7.30;4.25;;;7.50;99.90;;;;;;5051142;28;20052;-84
2020/12/07 07:59:34;;;;;;;8.10;2.83;;;7.60;99.90;;;;;;5051038;28;20052;-83
2020/12/07 08:17:52;;;;;;;2.95;2.55;;;7.60;99.90;;;;;;5050554;28;20093;-83
2020/12/07 08:20:20;;;;;;;4.18;3.85;;;7.70;99.90;;;;;;5050534;28;20399;-82
2020/12/07 08:22:56;;;;;;;14.75;7.78;;;7.70;99.90;;;;;;5050377;28;20479;-83
2020/12/07 08:25:50;;;;;;;14.80;7.25;;;7.80;99.90;;;;;;5049104;28;20029;-83
2020/12/07 08:28:32;;;;;;;7.05;5.38;;;7.70;99.90;;;;;;5049208;28;20021;-82
2020/12/07 08:31:04;;;;;;;7.93;5.45;;;7.70;99.90;;;;;;5050219;28;20169;-83
2020/12/07 08:33:32;;;;;;;10.90;6.03;;;7.80;99.90;;;;;;5050381;28;20029;-83
2020/12/07 08:36:01;;;;;;;11.32;6.43;;;7.80;99.90;;;;;;5050212;28;20048;-83
2020/12/07 08:38:30;;;;;;;5.22;4.00;;;7.70;99.90;;;;;;5049697;28;20025;-83
2020/12/07 08:41:10;;;;;;;9.82;5.97;;;7.80;99.90;;;;;;5048990;28;20037;-83
2020/12/07 08:43:38;;;;;;;36.72;15.18;;;7.80;99.90;;;;;;5048964;28;20108;-83
2020/12/07 08:46:05;;;;;;;15.55;8.77;;;7.80;99.90;;;;;;5050146;28;20048;-83
2020/12/07 08:48:31;;;;;;;13.38;7.05;;;7.80;99.90;;;;;;5050126;28;20472;-83
2020/12/07 08:50:57;;;;;;;6.40;4.70;;;7.80;99.90;;;;;;5077154;27;20115;-82
2020/12/07 08:53:23;;;;;;;6.75;4.72;;;7.90;99.90;;;;;;5048184;28;20056;-83
2020/12/07 08:55:49;;;;;;;10.20;6.22;;;7.90;99.90;;;;;;5048795;28;20077;-83
2020/12/07 08:58:15;;;;;;;3.88;3.38;;;8.00;99.90;;;;;;5049991;28;20029;-83
2020/12/07 09:00:41;;;;;;;5.70;3.70;;;8.00;99.90;;;;;;5048473;28;20925;-83
2020/12/07 09:03:07;;;;;;;2.65;2.42;;;8.00;99.90;;;;;;5049759;28;20033;-83
2020/12/07 09:05:33;;;;;;;6.05;2.97;;;8.10;99.90;;;;;;5049952;28;20032;-83
2020/12/07 09:07:58;;;;;;;2.85;2.17;;;8.10;99.90;;;;;;5029564;28;20381;-83
2020/12/07 09:10:24;;;;;;;5.22;2.50;;;8.20;99.90;;;;;;5029923;28;20025;-83
2020/12/07 09:12:50;;;;;;;2.38;1.98;;;8.20;99.90;;;;;;5035040;28;20397;-83
2020/12/07 09:15:16;;;;;;;1.40;1.25;;;8.30;99.90;;;;;;5049875;28;20053;-83
2020/12/07 09:17:42;;;;;;;1.70;1.60;;;8.40;99.90;;;;;;5049725;28;20090;-83
2020/12/07 09:20:08;;;;;;;5.38;3.65;;;8.40;99.90;;;;;;5049561;28;20029;-82
2020/12/07 09:22:33;;;;;;;4.88;4.03;;;8.50;99.90;;;;;;5049558;28;20054;-83
2020/12/07 09:24:59;;;;;;;3.60;3.30;;;8.50;99.90;;;;;;5049436;28;20029;-83
2020/12/07 09:27:24;;;;;;;4.20;3.40;;;8.40;99.90;;;;;;5049621;28;20036;-83
2020/12/07 09:29:50;;;;;;;3.72;3.47;;;8.40;99.90;;;;;;5049569;28;20399;-82
2020/12/07 09:32:16;;;;;;;7.60;3.20;;;8.40;99.90;;;;;;5049257;28;20025;-82
2020/12/07 09:34:41;;;;;;;5.78;3.35;;;8.40;99.90;;;;;;5049562;28;20472;-82
2020/12/07 09:37:07;;;;;;;3.47;3.17;;;8.40;99.90;;;;;;5049567;28;20040;-83
2020/12/07 09:39:33;;;;;;;3.55;3.20;;;8.40;99.90;;;;;;5049532;28;20471;-83
2020/12/07 09:41:58;;;;;;;3.05;2.70;;;8.40;99.90;;;;;;5049442;28;20158;-82
2020/12/07 09:44:24;;;;;;;2.72;2.53;;;8.50;99.90;;;;;;5049686;28;20373;-83
2020/12/07 09:46:54;;;;;;;2.15;2.00;;;8.50;99.90;;;;;;5049506;28;20065;-83
2020/12/07 09:49:20;;;;;;;2.83;2.20;;;8.50;99.90;;;;;;5049215;28;20025;-83
2020/12/07 09:51:46;;;;;;;2.33;2.10;;;8.50;99.90;;;;;;5048262;28;20485;-83
2020/12/07 09:54:12;;;;;;;2.35;2.25;;;8.60;99.90;;;;;;5049233;28;20036;-83
2020/12/07 09:56:38;;;;;;;2.45;2.00;;;8.60;99.90;;;;;;5049322;28;20033;-83
2020/12/07 09:59:03;;;;;;;2.55;2.35;;;8.70;99.90;;;;;;5047991;28;20029;-83
2020/12/07 10:01:29;;;;;;;2.55;2.00;;;8.70;99.90;;;;;;5048911;28;20025;-82
2020/12/07 10:03:58;;;;;;;2.22;2.10;;;8.70;99.90;;;;;;5049138;28;20401;-82
2020/12/07 10:06:24;;;;;;;2.10;1.90;;;8.70;99.90;;;;;;5052077;28;20039;-83
2020/12/07 10:08:49;;;;;;;1.95;1.85;;;8.70;99.90;;;;;;5052617;28;20045;-82
2020/12/07 10:11:15;;;;;;;2.20;2.10;;;8.70;99.90;;;;;;5050865;28;20106;-82
2020/12/07 10:13:42;;;;;;;2.10;1.90;;;8.70;99.90;;;;;;5052449;28;20059;-82
2020/12/07 10:16:08;;;;;;;2.03;1.92;;;8.70;99.90;;;;;;5051391;28;20396;-82
2020/12/07 10:18:33;;;;;;;3.92;2.75;;;8.70;99.90;;;;;;5051215;28;20029;-82
2020/12/07 10:21:02;;;;;;;2.38;2.17;;;8.80;99.90;;;;;;5052123;28;20032;-82
2020/12/07 10:23:27;;;;;;;1.52;1.42;;;8.80;99.90;;;;;;5052165;28;20053;-82
2020/12/07 10:25:53;;;;;;;9.02;3.55;;;8.80;99.90;;;;;;5052152;28;20060;-82
2020/12/07 10:28:19;;;;;;;2.08;1.65;;;8.80;99.90;;;;;;5052311;28;20025;-82
2020/12/07 10:30:45;;;;;;;3.58;2.33;;;8.80;99.90;;;;;;5051983;28;20025;-82
2020/12/07 10:33:11;;;;;;;1.45;1.35;;;8.80;99.90;;;;;;5052194;28;20503;-82
2020/12/07 10:35:37;;;;;;;1.88;1.50;;;8.80;99.90;;;;;;5052040;28;20148;-82
2020/12/07 10:38:03;;;;;;;1.40;1.30;;;8.80;99.90;;;;;;5052030;28;20462;-82
2020/12/07 10:40:29;;;;;;;1.48;1.27;;;8.80;99.90;;;;;;5051967;28;20036;-82
2020/12/07 10:42:55;;;;;;;1.65;1.50;;;8.80;99.90;;;;;;5051886;28;20484;-82
2020/12/07 10:45:20;;;;;;;1.75;1.52;;;8.80;99.90;;;;;;5051946;28;20025;-82
2020/12/07 10:47:46;;;;;;;2.65;1.70;;;8.80;99.90;;;;;;5050633;28;20547;-82
2020/12/07 10:50:12;;;;;;;1.88;1.60;;;8.90;99.90;;;;;;5051677;28;20063;-82
2020/12/07 10:52:37;;;;;;;2.75;1.70;;;8.90;99.90;;;;;;5050536;28;20029;-82
2020/12/07 10:55:03;;;;;;;1.88;1.40;;;8.90;99.90;;;;;;5050518;28;20429;-82
2020/12/07 10:57:29;;;;;;;1.50;1.40;;;8.90;99.90;;;;;;5051884;28;20033;-81
2020/12/07 10:59:54;;;;;;;4.03;1.60;;;8.90;99.90;;;;;;5051695;28;20530;-82
2020/12/07 11:02:20;;;;;;;1.73;1.63;;;8.90;99.90;;;;;;5051395;28;20029;-82
2020/12/07 11:04:46;;;;;;;2.63;1.55;;;8.90;99.90;;;;;;5050303;28;20029;-82
2020/12/07 11:07:15;;;;;;;2.25;1.90;;;8.90;99.90;;;;;;5051586;28;20098;-82
2020/12/07 11:09:41;;;;;;;3.30;2.63;;;8.90;99.90;;;;;;5051597;28;20487;-82
2020/12/07 11:12:12;;;;;;;2.20;1.98;;;8.90;99.90;;;;;;5051298;28;20049;-82
2020/12/07 11:14:38;;;;;;;2.05;1.80;;;8.90;99.90;;;;;;5051516;28;20077;-82
2020/12/07 11:17:05;;;;;;;1.70;1.60;;;8.90;99.90;;;;;;5051186;28;20103;-82
2020/12/07 11:19:32;;;;;;;2.03;1.92;;;8.90;99.90;;;;;;5049958;28;20425;-82
2020/12/07 11:21:57;;;;;;;2.88;2.00;;;8.90;99.90;;;;;;5072499;27;20033;-82
2020/12/07 11:24:23;;;;;;;1.73;1.60;;;8.90;99.90;;;;;;5070746;27;20681;-82
2020/12/07 11:26:48;;;;;;;1.77;1.67;;;8.90;99.90;;;;;;5065519;27;20025;-76
2020/12/07 11:29:14;;;;;;;2.67;1.73;;;8.90;99.90;;;;;;5057696;27;20087;-76
2020/12/07 11:31:40;;;;;;;5.57;1.88;;;8.90;99.90;;;;;;5037083;28;20053;-76
2020/12/07 11:34:06;;;;;;;2.28;2.08;;;8.90;99.90;;;;;;5045755;28;20067;-75
2020/12/07 11:36:32;;;;;;;5.05;2.03;;;8.90;99.90;;;;;;5047134;28;20025;-76
2020/12/07 11:44:23;;;;;;;3.90;2.65;;;8.80;99.90;;;;;;5048743;28;20025;-76
2020/12/07 11:46:58;;;;;;;2.70;2.50;;;8.70;99.90;;;;;;5038151;28;20109;-76
2020/12/07 11:49:23;;;;;;;2.92;2.63;;;8.70;99.90;;;;;;5043367;28;20021;-75
2020/12/07 11:51:49;;;;;;;3.08;2.78;;;8.70;99.90;;;;;;5046384;28;20040;-76
2020/12/07 11:54:15;;;;;;;2.92;2.72;;;8.70;99.90;;;;;;5039524;28;20102;-75
2020/12/07 11:56:41;;;;;;;2.72;2.53;;;8.70;99.90;;;;;;5030804;28;20029;-75
2020/12/07 11:59:10;;;;;;;9.20;3.20;;;8.80;99.90;;;;;;5029494;28;20078;-76
2020/12/07 12:01:38;;;;;;;3.58;3.17;;;8.80;99.90;;;;;;5046979;28;20033;-75
2020/12/07 12:04:05;;;;;;;4.53;2.90;;;8.80;99.90;;;;;;5050416;28;20029;-75
2020/12/07 12:06:34;;;;;;;4.13;2.70;;;8.80;99.90;;;;;;5050422;28;20025;-75
2020/12/07 12:09:01;;;;;;;3.85;2.47;;;8.80;99.90;;;;;;5047042;28;20029;-75
2020/12/07 12:11:35;;;;;;;2.80;2.42;;;8.80;99.90;;;;;;5029222;28;20136;-82
2020/12/07 12:14:02;;;;;;;5.30;2.85;;;8.80;99.90;;;;;;5049365;27;20029;-82
2020/12/07 12:16:28;;;;;;;2.92;2.67;;;8.90;99.90;;;;;;5050700;28;20494;-82
2020/12/07 12:18:54;;;;;;;3.05;2.83;;;8.90;99.90;;;;;;5049490;28;20025;-76
2020/12/07 12:21:20;;;;;;;3.38;2.83;;;9.00;99.90;;;;;;5034324;28;20109;-82
2020/12/07 12:23:49;;;;;;;4.03;2.50;;;9.10;99.90;;;;;;5049734;27;20152;-75
2020/12/07 12:26:18;;;;;;;2.60;2.40;;;9.20;99.90;;;;;;5049669;28;20021;-75
2020/12/07 12:28:43;;;;;;;3.25;2.90;;;9.20;99.90;;;;;;5043309;28;20025;-75
2020/12/07 12:31:10;;;;;;;2.80;2.45;;;9.20;99.90;;;;;;5034816;28;20036;-75
2020/12/07 12:33:36;;;;;;;3.28;2.38;;;9.30;99.90;;;;;;5050411;28;20065;-75
2020/12/07 12:36:03;;;;;;;2.80;2.55;;;9.10;99.90;;;;;;5050273;28;20064;-76
2020/12/07 12:38:28;;;;;;;2.92;2.72;;;9.00;99.90;;;;;;5050265;28;20037;-75
2020/12/07 12:40:54;;;;;;;2.80;2.60;;;9.00;99.90;;;;;;5039873;28;20033;-75
2020/12/07 12:43:20;;;;;;;2.17;1.98;;;8.90;99.90;;;;;;5048990;28;20372;-76
2020/12/07 12:45:45;;;;;;;2.95;2.75;;;8.90;99.90;;;;;;5050250;28;20480;-75
2020/12/07 12:48:11;;;;;;;3.17;2.60;;;8.80;99.90;;;;;;5050002;28;20136;-75
2020/12/07 12:50:37;;;;;;;2.60;2.40;;;8.80;99.90;;;;;;5033948;28;20030;-75
2020/12/07 12:53:03;;;;;;;2.95;2.45;;;8.80;99.90;;;;;;5030179;28;20112;-76
2020/12/07 12:55:29;;;;;;;2.50;2.30;;;8.80;99.90;;;;;;5034151;28;20029;-75
2020/12/07 12:57:55;;;;;;;2.78;2.58;;;8.70;99.90;;;;;;5048224;27;20154;-75
2020/12/07 13:00:21;;;;;;;3.00;2.70;;;8.70;99.90;;;;;;5049260;28;20507;-75
2020/12/07 13:02:47;;;;;;;2.80;2.60;;;8.70;99.90;;;;;;5048168;28;20029;-75
2020/12/07 13:05:13;;;;;;;2.80;2.50;;;8.60;99.90;;;;;;5049679;28;20025;-75
2020/12/07 13:07:39;;;;;;;3.22;3.00;;;8.60;99.90;;;;;;5030708;28;20491;-76
2020/12/07 13:10:05;;;;;;;2.67;2.47;;;8.60;99.90;;;;;;5044862;28;20030;-75
2020/12/07 13:12:30;;;;;;;5.20;3.33;;;8.60;99.90;;;;;;5045826;28;20053;-76
2020/12/07 13:14:56;;;;;;;3.63;3.22;;;8.50;99.90;;;;;;5048074;28;20468;-75
2020/12/07 13:17:24;;;;;;;6.45;3.80;;;8.50;99.90;;;;;;5049202;28;20517;-75
2020/12/07 13:19:51;;;;;;;6.15;4.72;;;8.50;99.90;;;;;;5049718;28;20027;-76
2020/12/07 13:25:09;;;;;;;4.47;3.40;;;8.60;99.90;;;;;;5049592;28;20116;-75
2020/12/07 13:30:10;;;;;;;4.28;3.88;;;8.60;99.90;;;;;;5029534;28;20036;-75
2020/12/07 13:32:36;;;;;;;5.35;3.80;;;8.60;99.90;;;;;;5028328;28;20079;-75
2020/12/07 13:35:02;;;;;;;4.97;3.65;;;8.50;99.90;;;;;;5032037;28;20025;-75